sensor_id;sensor_type;location;lat;lon;timestamp;pressure;altitude;pressure_sealevel;temperature;humidity
56241;BME280;42155;53.096;23.226;2023-01-28T00:01:15;100700.31;;;0.72;80.89
56241;BME280;42155;53.096;23.226;2023-01-28T00:03:16;100714.03;;;0.80;81.15
56241;BME280;42155;53.096;23.226;2023-01-28T00:05:16;100692.75;;;0.63;81.56
56241;BME280;42155;53.096;23.226;2023-01-28T00:07:17;100708.03;;;0.76;81.67
56241;BME280;42155;53.096;23.226;2023-01-28T00:09:17;100707.19;;;0.76;81.57
56241;BME280;42155;53.096;23.226;2023-01-28T00:11:17;100708.16;;;0.72;81.05
56241;BME280;42155;53.096;23.226;2023-01-28T00:13:18;100734.34;;;0.69;81.66
56241;BME280;42155;53.096;23.226;2023-01-28T00:15:18;100707.50;;;0.64;81.24
56241;BME280;42155;53.096;23.226;2023-01-28T00:17:18;100703.13;;;0.66;81.31
56241;BME280;42155;53.096;23.226;2023-01-28T00:19:19;100703.13;;;0.66;81.45
56241;BME280;42155;53.096;23.226;2023-01-28T00:21:19;100704.75;;;0.68;81.26
56241;BME280;42155;53.096;23.226;2023-01-28T00:23:19;100711.69;;;0.71;81.19
56241;BME280;42155;53.096;23.226;2023-01-28T00:25:20;100686.78;;;0.58;81.59
56241;BME280;42155;53.096;23.226;2023-01-28T00:27:20;100699.84;;;0.58;81.36
56241;BME280;42155;53.096;23.226;2023-01-28T00:29:20;100700.44;;;0.67;81.21
56241;BME280;42155;53.096;23.226;2023-01-28T00:31:23;100697.97;;;0.63;81.10
56241;BME280;42155;53.096;23.226;2023-01-28T00:33:24;100691.59;;;0.40;81.84
56241;BME280;42155;53.096;23.226;2023-01-28T00:35:25;100705.31;;;0.48;82.16
56241;BME280;42155;53.096;23.226;2023-01-28T00:37:25;100701.91;;;0.46;82.23
56241;BME280;42155;53.096;23.226;2023-01-28T00:39:26;100677.81;;;0.35;82.26
56241;BME280;42155;53.096;23.226;2023-01-28T00:41:28;100698.34;;;0.49;81.87
56241;BME280;42155;53.096;23.226;2023-01-28T00:43:28;100696.34;;;0.59;81.72
56241;BME280;42155;53.096;23.226;2023-01-28T00:45:29;100717.16;;;0.62;81.67
56241;BME280;42155;53.096;23.226;2023-01-28T00:47:29;100699.66;;;0.64;81.91
56241;BME280;42155;53.096;23.226;2023-01-28T00:49:29;100706.63;;;0.65;81.29
56241;BME280;42155;53.096;23.226;2023-01-28T00:51:30;100703.38;;;0.57;81.49
56241;BME280;42155;53.096;23.226;2023-01-28T00:53:30;100696.34;;;0.59;82.07
56241;BME280;42155;53.096;23.226;2023-01-28T00:55:31;100671.44;;;0.45;81.75
56241;BME280;42155;53.096;23.226;2023-01-28T00:57:31;100695.59;;;0.54;81.34
56241;BME280;42155;53.096;23.226;2023-01-28T00:59:31;100683.91;;;0.36;81.82
56241;BME280;42155;53.096;23.226;2023-01-28T01:01:32;100696.72;;;0.45;82.25
56241;BME280;42155;53.096;23.226;2023-01-28T01:03:33;100692.44;;;0.42;82.25
56241;BME280;42155;53.096;23.226;2023-01-28T01:05:33;100686.13;;;0.49;82.02
56241;BME280;42155;53.096;23.226;2023-01-28T01:07:33;100679.03;;;0.55;81.67
56241;BME280;42155;53.096;23.226;2023-01-28T01:09:33;100680.59;;;0.62;81.58
56241;BME280;42155;53.096;23.226;2023-01-28T01:11:34;100689.94;;;0.69;82.10
56241;BME280;42155;53.096;23.226;2023-01-28T01:13:35;100654.78;;;0.51;81.85
56241;BME280;42155;53.096;23.226;2023-01-28T01:15:35;100677.91;;;0.65;82.23
56241;BME280;42155;53.096;23.226;2023-01-28T01:17:37;100682.22;;;0.66;81.46
56241;BME280;42155;53.096;23.226;2023-01-28T01:19:37;100670.13;;;0.62;81.79
56241;BME280;42155;53.096;23.226;2023-01-28T01:21:38;100651.72;;;0.35;81.81
56241;BME280;42155;53.096;23.226;2023-01-28T01:23:38;100669.75;;;0.44;81.80
56241;BME280;42155;53.096;23.226;2023-01-28T01:25:39;100658.66;;;0.36;82.31
56241;BME280;42155;53.096;23.226;2023-01-28T01:27:40;100678.31;;;0.49;82.47
56241;BME280;42155;53.096;23.226;2023-01-28T01:29:40;100664.72;;;0.37;82.26
56241;BME280;42155;53.096;23.226;2023-01-28T01:31:40;100673.13;;;0.48;82.08
56241;BME280;42155;53.096;23.226;2023-01-28T01:33:42;100676.53;;;0.52;82.09
56241;BME280;42155;53.096;23.226;2023-01-28T01:35:43;100675.69;;;0.49;81.89
56241;BME280;42155;53.096;23.226;2023-01-28T01:37:43;100668.75;;;0.48;82.26
56241;BME280;42155;53.096;23.226;2023-01-28T01:39:43;100672.22;;;0.49;82.47
56241;BME280;42155;53.096;23.226;2023-01-28T01:41:44;100674.91;;;0.46;82.01
56241;BME280;42155;53.096;23.226;2023-01-28T01:43:56;100683.66;;;0.45;82.35
56241;BME280;42155;53.096;23.226;2023-01-28T01:45:59;100668.75;;;0.48;82.53
56241;BME280;42155;53.096;23.226;2023-01-28T01:48:12;100670.47;;;0.49;82.34
56241;BME280;42155;53.096;23.226;2023-01-28T01:52:23;100630.31;;;0.22;82.30
56241;BME280;42155;53.096;23.226;2023-01-28T01:54:26;100670.47;;;0.49;82.50
56241;BME280;42155;53.096;23.226;2023-01-28T01:56:32;100669.56;;;0.50;81.83
56241;BME280;42155;53.096;23.226;2023-01-28T01:58:37;100674.88;;;0.47;82.04
56241;BME280;42155;53.096;23.226;2023-01-28T02:00:40;100676.53;;;0.52;81.90
56241;BME280;42155;53.096;23.226;2023-01-28T02:02:44;100608.94;;;0.10;82.25
56241;BME280;42155;53.096;23.226;2023-01-28T02:04:45;100679.22;;;0.48;81.82
56241;BME280;42155;53.096;23.226;2023-01-28T02:06:46;100680.00;;;0.50;82.30
56241;BME280;42155;53.096;23.226;2023-01-28T02:08:47;100566.03;;;-0.13;82.39
56241;BME280;42155;53.096;23.226;2023-01-28T02:11:07;100663.41;;;0.53;81.72
56241;BME280;42155;53.096;23.226;2023-01-28T02:13:09;100673.13;;;0.48;81.90
56241;BME280;42155;53.096;23.226;2023-01-28T02:15:12;100663.53;;;0.48;82.04
56241;BME280;42155;53.096;23.226;2023-01-28T02:17:14;100625.00;;;0.25;81.82
56241;BME280;42155;53.096;23.226;2023-01-28T02:19:17;100662.56;;;0.53;82.44
56241;BME280;42155;53.096;23.226;2023-01-28T02:29:20;100665.84;;;0.59;81.55
56241;BME280;42155;53.096;23.226;2023-01-28T02:31:29;100670.31;;;0.56;82.01
56241;BME280;42155;53.096;23.226;2023-01-28T02:35:51;100654.53;;;0.59;81.61
56241;BME280;42155;53.096;23.226;2023-01-28T02:37:55;100668.13;;;0.71;81.74
56241;BME280;42155;53.096;23.226;2023-01-28T02:40:01;100671.00;;;0.62;81.80
56241;BME280;42155;53.096;23.226;2023-01-28T02:42:06;100663.47;;;0.52;82.03
56241;BME280;42155;53.096;23.226;2023-01-28T02:44:08;100681.63;;;0.55;81.55
56241;BME280;42155;53.096;23.226;2023-01-28T02:48:12;100676.66;;;0.47;81.84
56241;BME280;42155;53.096;23.226;2023-01-28T02:50:15;100635.63;;;0.19;82.25
56241;BME280;42155;53.096;23.226;2023-01-28T02:54:45;100677.84;;;0.66;81.62
56241;BME280;42155;53.096;23.226;2023-01-28T02:56:55;100675.09;;;0.71;81.21
56241;BME280;42155;53.096;23.226;2023-01-28T03:01:23;100672.50;;;0.71;81.38
56241;BME280;42155;53.096;23.226;2023-01-28T03:05:55;100676.34;;;0.58;81.23
56241;BME280;42155;53.096;23.226;2023-01-28T03:07:58;100685.81;;;0.62;81.46
56241;BME280;42155;53.096;23.226;2023-01-28T03:10:01;100689.06;;;0.70;81.94
56241;BME280;42155;53.096;23.226;2023-01-28T03:12:05;100662.25;;;0.63;81.16
56241;BME280;42155;53.096;23.226;2023-01-28T03:14:07;100685.38;;;0.77;81.60
56241;BME280;42155;53.096;23.226;2023-01-28T03:16:08;100680.97;;;0.79;81.76
56241;BME280;42155;53.096;23.226;2023-01-28T03:18:15;100688.56;;;0.87;81.57
56241;BME280;42155;53.096;23.226;2023-01-28T03:20:17;100681.50;;;0.90;81.22
56241;BME280;42155;53.096;23.226;2023-01-28T03:22:20;100676.47;;;0.84;81.12
56241;BME280;42155;53.096;23.226;2023-01-28T03:24:29;100687.53;;;0.92;81.31
56241;BME280;42155;53.096;23.226;2023-01-28T03:26:34;100681.59;;;0.87;81.30
56241;BME280;42155;53.096;23.226;2023-01-28T03:28:38;100679.53;;;0.98;81.25
56241;BME280;42155;53.096;23.226;2023-01-28T03:30:45;100682.94;;;1.00;81.21
56241;BME280;42155;53.096;23.226;2023-01-28T03:32:47;100667.50;;;0.93;81.22
56241;BME280;42155;53.096;23.226;2023-01-28T03:34:48;100681.03;;;1.06;80.78
56241;BME280;42155;53.096;23.226;2023-01-28T03:36:48;100675.81;;;1.06;80.48
56241;BME280;42155;53.096;23.226;2023-01-28T03:38:49;100684.47;;;1.08;80.87
56241;BME280;42155;53.096;23.226;2023-01-28T03:40:58;100680.16;;;1.07;80.27
56241;BME280;42155;53.096;23.226;2023-01-28T03:42:59;100667.94;;;1.07;80.46
56241;BME280;42155;53.096;23.226;2023-01-28T03:45:00;100660.59;;;0.90;80.37
56241;BME280;42155;53.096;23.226;2023-01-28T03:47:00;100670.84;;;0.96;81.09
56241;BME280;42155;53.096;23.226;2023-01-28T03:49:00;100665.97;;;0.86;80.67
56241;BME280;42155;53.096;23.226;2023-01-28T03:51:01;100680.72;;;0.88;80.83
56241;BME280;42155;53.096;23.226;2023-01-28T03:53:01;100665.44;;;0.74;80.96
56241;BME280;42155;53.096;23.226;2023-01-28T03:55:01;100673.84;;;0.84;81.25
56241;BME280;42155;53.096;23.226;2023-01-28T03:57:02;100674.66;;;0.86;81.48
56241;BME280;42155;53.096;23.226;2023-01-28T03:59:03;100642.84;;;0.72;80.89
56241;BME280;42155;53.096;23.226;2023-01-28T04:01:03;100675.16;;;0.99;81.32
56241;BME280;42155;53.096;23.226;2023-01-28T04:03:03;100674.09;;;1.05;80.42
56241;BME280;42155;53.096;23.226;2023-01-28T04:05:04;100678.44;;;1.06;80.88
56241;BME280;42155;53.096;23.226;2023-01-28T04:07:07;100666.22;;;1.06;80.09
56241;BME280;42155;53.096;23.226;2023-01-28T04:09:07;100668.88;;;1.05;80.39
56241;BME280;42155;53.096;23.226;2023-01-28T04:11:08;100653.09;;;0.80;80.26
56241;BME280;42155;53.096;23.226;2023-01-28T04:13:08;100665.91;;;0.87;80.58
56241;BME280;42155;53.096;23.226;2023-01-28T04:15:09;100656.91;;;0.68;80.48
56241;BME280;42155;53.096;23.226;2023-01-28T04:17:09;100677.00;;;0.66;81.11
56241;BME280;42155;53.096;23.226;2023-01-28T04:19:10;100690.13;;;0.63;81.07
56241;BME280;42155;53.096;23.226;2023-01-28T04:21:11;100691.88;;;0.62;81.47
56241;BME280;42155;53.096;23.226;2023-01-28T04:23:11;100685.81;;;0.62;81.46
56241;BME280;42155;53.096;23.226;2023-01-28T04:25:11;100694.44;;;0.64;81.89
56241;BME280;42155;53.096;23.226;2023-01-28T04:27:12;100673.72;;;0.58;81.51
56241;BME280;42155;53.096;23.226;2023-01-28T04:29:12;100681.63;;;0.56;81.46
56241;BME280;42155;53.096;23.226;2023-01-28T04:31:13;100667.13;;;0.44;81.89
56241;BME280;42155;53.096;23.226;2023-01-28T04:33:13;100699.78;;;0.61;81.48
56241;BME280;42155;53.096;23.226;2023-01-28T04:35:14;100666.22;;;0.45;81.32
56241;BME280;42155;53.096;23.226;2023-01-28T04:37:14;100684.25;;;0.55;81.17
56241;BME280;42155;53.096;23.226;2023-01-28T04:39:14;100619.50;;;0.04;81.70
56241;BME280;42155;53.096;23.226;2023-01-28T04:41:15;100695.31;;;0.64;81.96
56241;BME280;42155;53.096;23.226;2023-01-28T04:43:15;100671.06;;;0.59;81.38
56241;BME280;42155;53.096;23.226;2023-01-28T04:45:15;100693.84;;;0.85;80.61
56241;BME280;42155;53.096;23.226;2023-01-28T04:47:16;100677.41;;;0.82;80.31
56241;BME280;42155;53.096;23.226;2023-01-28T04:49:16;100690.91;;;0.96;80.31
56241;BME280;42155;53.096;23.226;2023-01-28T04:51:16;100677.41;;;0.82;80.48
56241;BME280;42155;53.096;23.226;2023-01-28T04:53:17;100694.69;;;0.86;80.83
56241;BME280;42155;53.096;23.226;2023-01-28T04:55:17;100704.34;;;0.84;80.98
56241;BME280;42155;53.096;23.226;2023-01-28T04:57:17;100692.88;;;0.88;80.41
56241;BME280;42155;53.096;23.226;2023-01-28T04:59:18;100683.41;;;0.85;80.18
56241;BME280;42155;53.096;23.226;2023-01-28T05:01:18;100679.22;;;0.78;80.32
56241;BME280;42155;53.096;23.226;2023-01-28T05:03:18;100693.94;;;0.82;80.41
56241;BME280;42155;53.096;23.226;2023-01-28T05:05:19;100688.69;;;0.82;80.91
56241;BME280;42155;53.096;23.226;2023-01-28T05:07:19;100693.84;;;0.85;80.86
56241;BME280;42155;53.096;23.226;2023-01-28T05:09:19;100685.19;;;0.83;81.03
56241;BME280;42155;53.096;23.226;2023-01-28T05:11:20;100702.50;;;0.87;80.60
56241;BME280;42155;53.096;23.226;2023-01-28T05:13:21;100669.63;;;0.80;80.52
56241;BME280;42155;53.096;23.226;2023-01-28T05:15:21;100709.06;;;1.00;80.53
56241;BME280;42155;53.096;23.226;2023-01-28T05:17:22;100677.91;;;0.94;80.41
56241;BME280;42155;53.096;23.226;2023-01-28T05:19:22;100695.16;;;1.00;80.19
56241;BME280;42155;53.096;23.226;2023-01-28T05:21:22;100692.63;;;0.97;80.43
56241;BME280;42155;53.096;23.226;2023-01-28T05:23:23;100696.84;;;1.02;80.13
56241;BME280;42155;53.096;23.226;2023-01-28T05:25:23;100703.84;;;1.00;80.56
56241;BME280;42155;53.096;23.226;2023-01-28T05:27:23;100703.84;;;1.00;79.85
56241;BME280;42155;53.096;23.226;2023-01-28T05:29:24;100698.81;;;0.94;79.94
56241;BME280;42155;53.096;23.226;2023-01-28T05:31:24;100711.03;;;0.92;80.22
56241;BME280;42155;53.096;23.226;2023-01-28T05:33:24;100682.69;;;0.79;80.30
56241;BME280;42155;53.096;23.226;2023-01-28T05:35:25;100685.19;;;0.83;80.06
56241;BME280;42155;53.096;23.226;2023-01-28T05:37:25;100717.81;;;0.99;80.04
56241;BME280;42155;53.096;23.226;2023-01-28T05:39:25;100680.97;;;0.79;80.32
56241;BME280;42155;53.096;23.226;2023-01-28T05:41:26;100731.88;;;0.95;80.50
56241;BME280;42155;53.096;23.226;2023-01-28T05:43:26;100721.34;;;0.98;80.55
56241;BME280;42155;53.096;23.226;2023-01-28T05:45:26;100704.88;;;0.95;80.57
56241;BME280;42155;53.096;23.226;2023-01-28T05:47:27;100714.56;;;0.91;80.50
56241;BME280;42155;53.096;23.226;2023-01-28T05:49:27;100710.13;;;0.95;80.08
56241;BME280;42155;53.096;23.226;2023-01-28T05:51:27;100717.06;;;0.96;80.19
56241;BME280;42155;53.096;23.226;2023-01-28T05:53:28;100686.91;;;0.84;80.36
56241;BME280;42155;53.096;23.226;2023-01-28T05:55:28;100704.94;;;0.93;80.12
56241;BME280;42155;53.096;23.226;2023-01-28T05:57:29;100715.94;;;1.05;80.47
56241;BME280;42155;53.096;23.226;2023-01-28T05:59:30;100680.84;;;0.84;80.21
56241;BME280;42155;53.096;23.226;2023-01-28T06:01:30;100728.94;;;1.06;80.46
56241;BME280;42155;53.096;23.226;2023-01-28T06:03:31;100674.00;;;0.78;79.91
56241;BME280;42155;53.096;23.226;2023-01-28T06:05:31;100719.38;;;1.07;80.42
56241;BME280;42155;53.096;23.226;2023-01-28T06:07:31;100715.25;;;0.98;80.17
56241;BME280;42155;53.096;23.226;2023-01-28T06:09:31;100724.09;;;0.94;80.09
56241;BME280;42155;53.096;23.226;2023-01-28T06:11:32;100726.66;;;0.95;80.17
56241;BME280;42155;53.096;23.226;2023-01-28T06:13:32;100653.16;;;0.45;80.62
56241;BME280;42155;53.096;23.226;2023-01-28T06:15:33;100731.88;;;0.95;80.57
56241;BME280;42155;53.096;23.226;2023-01-28T06:17:33;100731.03;;;0.95;80.88
56241;BME280;42155;53.096;23.226;2023-01-28T06:19:33;100732.91;;;0.90;80.69
56241;BME280;42155;53.096;23.226;2023-01-28T06:21:34;100712.34;;;0.77;80.43
56241;BME280;42155;53.096;23.226;2023-01-28T06:23:34;100729.47;;;0.88;80.49
56241;BME280;42155;53.096;23.226;2023-01-28T06:25:34;100725.22;;;0.85;81.24
56241;BME280;42155;53.096;23.226;2023-01-28T06:27:34;100732.25;;;0.82;81.06
56241;BME280;42155;53.096;23.226;2023-01-28T06:29:35;100730.44;;;0.85;80.70
56241;BME280;42155;53.096;23.226;2023-01-28T06:31:35;100739.19;;;0.83;81.21
56241;BME280;42155;53.096;23.226;2023-01-28T06:33:35;100729.84;;;0.75;80.73
56241;BME280;42155;53.096;23.226;2023-01-28T06:35:36;100714.22;;;0.74;81.11
56241;BME280;42155;53.096;23.226;2023-01-28T06:37:36;100745.78;;;0.97;80.51
56241;BME280;42155;53.096;23.226;2023-01-28T06:39:36;100706.38;;;0.74;80.73
56241;BME280;42155;53.096;23.226;2023-01-28T06:41:37;100737.22;;;0.91;80.67
56241;BME280;42155;53.096;23.226;2023-01-28T06:43:37;100747.38;;;1.01;80.13
56241;BME280;42155;53.096;23.226;2023-01-28T06:45:38;100707.13;;;0.77;80.51
56241;BME280;42155;53.096;23.226;2023-01-28T06:47:38;100727.63;;;0.93;80.06
56241;BME280;42155;53.096;23.226;2023-01-28T06:49:39;100747.63;;;0.92;80.50
56241;BME280;42155;53.096;23.226;2023-01-28T06:51:39;100743.44;;;0.87;80.27
56241;BME280;42155;53.096;23.226;2023-01-28T06:53:39;100754.84;;;0.84;80.59
56241;BME280;42155;53.096;23.226;2023-01-28T06:55:40;100729.22;;;0.66;80.85
56241;BME280;42155;53.096;23.226;2023-01-28T06:57:40;100748.84;;;0.81;81.07
56241;BME280;42155;53.096;23.226;2023-01-28T06:59:41;100731.88;;;0.64;80.88
56241;BME280;42155;53.096;23.226;2023-01-28T07:01:41;100667.63;;;0.26;80.45
56241;BME280;42155;53.096;23.226;2023-01-28T07:03:41;100754.94;;;0.81;80.55
56241;BME280;42155;53.096;23.226;2023-01-28T07:05:42;100762.81;;;0.80;80.81
56241;BME280;42155;53.096;23.226;2023-01-28T07:07:42;100751.84;;;0.67;80.43
56241;BME280;42155;53.096;23.226;2023-01-28T07:09:42;100757.66;;;0.76;80.79
56241;BME280;42155;53.096;23.226;2023-01-28T07:11:43;100753.47;;;0.71;80.30
56241;BME280;42155;53.096;23.226;2023-01-28T07:13:43;100755.19;;;0.72;80.84
56241;BME280;42155;53.096;23.226;2023-01-28T07:15:43;100762.75;;;0.81;80.75
56241;BME280;42155;53.096;23.226;2023-01-28T07:17:44;100687.53;;;0.30;80.27
56241;BME280;42155;53.096;23.226;2023-01-28T07:19:46;100723.78;;;0.41;80.62
56241;BME280;42155;53.096;23.226;2023-01-28T07:21:46;100662.59;;;0.18;80.29
56241;BME280;42155;53.096;23.226;2023-01-28T07:23:46;100770.59;;;0.81;80.39
56241;BME280;42155;53.096;23.226;2023-01-28T07:25:47;100767.25;;;0.76;79.94
56241;BME280;42155;53.096;23.226;2023-01-28T07:27:49;100774.13;;;0.80;80.18
56241;BME280;42155;53.096;23.226;2023-01-28T07:29:50;100768.19;;;0.73;80.33
56241;BME280;42155;53.096;23.226;2023-01-28T07:31:50;100769.22;;;0.68;80.18
56241;BME280;42155;53.096;23.226;2023-01-28T07:33:50;100772.75;;;0.67;80.01
56241;BME280;42155;53.096;23.226;2023-01-28T07:35:51;100781.53;;;0.63;80.42
56241;BME280;42155;53.096;23.226;2023-01-28T07:37:53;100766.84;;;0.59;80.56
56241;BME280;42155;53.096;23.226;2023-01-28T07:39:53;100777.78;;;0.73;80.51
56241;BME280;42155;53.096;23.226;2023-01-28T07:41:53;100781.06;;;0.81;80.11
56241;BME280;42155;53.096;23.226;2023-01-28T07:43:54;100686.50;;;0.37;79.82
56241;BME280;42155;53.096;23.226;2023-01-28T07:45:54;100755.91;;;0.77;79.50
56241;BME280;42155;53.096;23.226;2023-01-28T07:48:03;100775.56;;;0.90;79.33
56241;BME280;42155;53.096;23.226;2023-01-28T07:50:04;100777.53;;;0.82;79.32
56241;BME280;42155;53.096;23.226;2023-01-28T07:52:05;100737.88;;;0.68;79.83
56241;BME280;42155;53.096;23.226;2023-01-28T07:54:05;100778.06;;;0.95;79.41
56241;BME280;42155;53.096;23.226;2023-01-28T07:56:06;100762.47;;;0.92;79.25
56241;BME280;42155;53.096;23.226;2023-01-28T07:58:07;100731.59;;;0.75;79.01
56241;BME280;42155;53.096;23.226;2023-01-28T08:00:08;100768.16;;;1.06;79.44
56241;BME280;42155;53.096;23.226;2023-01-28T08:02:10;100762.19;;;1.01;78.98
56241;BME280;42155;53.096;23.226;2023-01-28T08:04:11;100754.66;;;0.90;79.14
56241;BME280;42155;53.096;23.226;2023-01-28T08:06:11;100777.22;;;0.94;78.87
56241;BME280;42155;53.096;23.226;2023-01-28T08:08:11;100768.53;;;0.92;79.05
56241;BME280;42155;53.096;23.226;2023-01-28T08:10:12;100773.63;;;0.98;78.94
56241;BME280;42155;53.096;23.226;2023-01-28T08:12:12;100758.00;;;0.95;78.72
56241;BME280;42155;53.096;23.226;2023-01-28T08:14:12;100771.16;;;0.92;79.29
56241;BME280;42155;53.096;23.226;2023-01-28T08:16:13;100764.31;;;0.88;78.88
56241;BME280;42155;53.096;23.226;2023-01-28T08:18:14;100762.50;;;0.90;79.53
56241;BME280;42155;53.096;23.226;2023-01-28T08:20:15;100766.84;;;0.91;79.14
56241;BME280;42155;53.096;23.226;2023-01-28T08:22:16;100765.38;;;0.81;78.35
56241;BME280;42155;53.096;23.226;2023-01-28T08:24:16;100767.44;;;0.70;78.66
56241;BME280;42155;53.096;23.226;2023-01-28T08:26:16;100763.34;;;0.60;78.84
56241;BME280;42155;53.096;23.226;2023-01-28T08:28:17;100777.41;;;0.56;78.49
56241;BME280;42155;53.096;23.226;2023-01-28T08:30:17;100787.91;;;0.53;78.53
56241;BME280;42155;53.096;23.226;2023-01-28T08:32:17;100758.81;;;0.34;78.48
56241;BME280;42155;53.096;23.226;2023-01-28T08:34:18;100751.28;;;0.21;78.23
56241;BME280;42155;53.096;23.226;2023-01-28T08:36:18;100789.97;;;0.40;78.13
56241;BME280;42155;53.096;23.226;2023-01-28T08:38:18;100778.59;;;0.42;78.51
56241;BME280;42155;53.096;23.226;2023-01-28T08:40:19;100773.22;;;0.48;77.83
56241;BME280;42155;53.096;23.226;2023-01-28T08:42:20;100779.19;;;0.54;77.14
56241;BME280;42155;53.096;23.226;2023-01-28T08:44:20;100769.63;;;0.53;77.66
56241;BME280;42155;53.096;23.226;2023-01-28T08:46:20;100769.38;;;0.62;77.44
56241;BME280;42155;53.096;23.226;2023-01-28T08:48:21;100785.38;;;0.82;76.63
56241;BME280;42155;53.096;23.226;2023-01-28T08:50:22;100777.38;;;0.88;76.10
56241;BME280;42155;53.096;23.226;2023-01-28T08:52:23;100763.75;;;0.77;75.78
56241;BME280;42155;53.096;23.226;2023-01-28T08:54:23;100779.91;;;0.91;75.47
56241;BME280;42155;53.096;23.226;2023-01-28T08:56:23;100781.59;;;0.94;75.15
56241;BME280;42155;53.096;23.226;2023-01-28T08:58:23;100778.91;;;0.95;74.85
56241;BME280;42155;53.096;23.226;2023-01-28T09:00:24;100787.59;;;0.97;75.20
56241;BME280;42155;53.096;23.226;2023-01-28T09:02:24;100708.50;;;0.60;74.99
56241;BME280;42155;53.096;23.226;2023-01-28T09:04:24;100706.78;;;0.59;75.21
56241;BME280;42155;53.096;23.226;2023-01-28T09:06:25;100789.97;;;1.05;75.42
56241;BME280;42155;53.096;23.226;2023-01-28T09:08:25;100797.75;;;1.08;75.47
56241;BME280;42155;53.096;23.226;2023-01-28T09:10:25;100788.38;;;0.99;74.84
56241;BME280;42155;53.096;23.226;2023-01-28T09:12:26;100783.97;;;1.01;74.91
56241;BME280;42155;53.096;23.226;2023-01-28T09:14:26;100795.97;;;1.09;75.47
56241;BME280;42155;53.096;23.226;2023-01-28T09:16:26;100792.38;;;1.13;75.50
56241;BME280;42155;53.096;23.226;2023-01-28T09:18:27;100796.06;;;1.06;75.29
56241;BME280;42155;53.096;23.226;2023-01-28T09:20:27;100754.84;;;0.84;75.57
56241;BME280;42155;53.096;23.226;2023-01-28T09:22:28;100763.56;;;0.83;75.36
56241;BME280;42155;53.096;23.226;2023-01-28T09:24:28;100784.06;;;0.98;75.63
56241;BME280;42155;53.096;23.226;2023-01-28T09:26:28;100756.50;;;0.87;75.70
56241;BME280;42155;53.096;23.226;2023-01-28T09:28:29;100773.44;;;1.05;75.58
56241;BME280;42155;53.096;23.226;2023-01-28T09:30:30;100765.84;;;0.95;75.36
56241;BME280;42155;53.096;23.226;2023-01-28T09:32:30;100790.81;;;1.07;75.58
56241;BME280;42155;53.096;23.226;2023-01-28T09:34:31;100769.69;;;0.84;75.34
56241;BME280;42155;53.096;23.226;2023-01-28T09:36:31;100784.22;;;0.92;75.14
56241;BME280;42155;53.096;23.226;2023-01-28T09:38:32;100746.69;;;0.64;75.67
56241;BME280;42155;53.096;23.226;2023-01-28T09:40:39;100790.19;;;0.97;75.81
56241;BME280;42155;53.096;23.226;2023-01-28T09:47:12;100780.63;;;0.96;75.34
56241;BME280;42155;53.096;23.226;2023-01-28T09:49:33;100754.41;;;0.68;75.57
56241;BME280;42155;53.096;23.226;2023-01-28T09:51:42;100710.78;;;0.39;75.79
56241;BME280;42155;53.096;23.226;2023-01-28T09:53:47;100774.38;;;0.71;75.75
56241;BME280;42155;53.096;23.226;2023-01-28T09:55:54;100774.31;;;0.74;75.94
56241;BME280;42155;53.096;23.226;2023-01-28T09:57:55;100781.06;;;0.81;75.51
56241;BME280;42155;53.096;23.226;2023-01-28T09:59:56;100786.53;;;0.72;75.26
56241;BME280;42155;53.096;23.226;2023-01-28T10:09:04;100780.16;;;0.49;75.98
56241;BME280;42155;53.096;23.226;2023-01-28T10:18:07;100776.81;;;0.44;76.85
56241;BME280;42155;53.096;23.226;2023-01-28T10:22:23;100756.22;;;0.32;76.58
56241;BME280;42155;53.096;23.226;2023-01-28T10:24:34;100780.25;;;0.46;76.56
56241;BME280;42155;53.096;23.226;2023-01-28T10:26:38;100760.53;;;0.35;75.57
56241;BME280;42155;53.096;23.226;2023-01-28T10:28:39;100772.59;;;0.39;76.22
56241;BME280;42155;53.096;23.226;2023-01-28T10:30:41;100753.72;;;0.29;76.12
56241;BME280;42155;53.096;23.226;2023-01-28T10:33:03;100762.94;;;0.42;76.58
56241;BME280;42155;53.096;23.226;2023-01-28T10:35:03;100766.34;;;0.44;76.28
56241;BME280;42155;53.096;23.226;2023-01-28T10:37:04;100752.63;;;0.36;76.00
56241;BME280;42155;53.096;23.226;2023-01-28T10:39:04;100761.44;;;0.32;76.33
56241;BME280;42155;53.096;23.226;2023-01-28T10:41:05;100767.50;;;0.34;75.85
56241;BME280;42155;53.096;23.226;2023-01-28T10:43:05;100758.03;;;0.30;76.55
56241;BME280;42155;53.096;23.226;2023-01-28T10:45:25;100763.06;;;0.38;75.81
56241;BME280;42155;53.096;23.226;2023-01-28T10:47:37;100762.03;;;0.43;76.20
56241;BME280;42155;53.096;23.226;2023-01-28T10:49:44;100757.31;;;0.58;75.48
56241;BME280;42155;53.096;23.226;2023-01-28T10:51:46;100752.75;;;0.66;75.20
56241;BME280;42155;53.096;23.226;2023-01-28T10:53:46;100673.94;;;0.19;75.60
56241;BME280;42155;53.096;23.226;2023-01-28T10:55:53;100753.53;;;0.69;75.75
56241;BME280;42155;53.096;23.226;2023-01-28T10:57:55;100736.84;;;0.73;75.08
56241;BME280;42155;53.096;23.226;2023-01-28T10:59:55;100746.03;;;0.88;75.21
56241;BME280;42155;53.096;23.226;2023-01-28T11:01:58;100738.00;;;0.94;74.66
56241;BME280;42155;53.096;23.226;2023-01-28T11:04:00;100738.72;;;0.99;74.02
56241;BME280;42155;53.096;23.226;2023-01-28T11:06:01;100725.22;;;0.85;74.20
56241;BME280;42155;53.096;23.226;2023-01-28T11:08:21;100747.38;;;1.01;74.24
56241;BME280;42155;53.096;23.226;2023-01-28T11:10:28;100728.09;;;1.06;73.80
56241;BME280;42155;53.096;23.226;2023-01-28T11:12:29;100732.31;;;1.11;73.35
56241;BME280;42155;53.096;23.226;2023-01-28T11:14:29;100735.66;;;1.16;73.17
56241;BME280;42155;53.096;23.226;2023-01-28T11:16:30;100727.94;;;1.12;73.55
56241;BME280;42155;53.096;23.226;2023-01-28T11:18:34;100705.22;;;0.84;73.32